createdAt,value
2023-05-25T00:01:22.497Z,38.59
2023-05-25T00:03:28.237Z,38.83
2023-05-25T00:05:33.458Z,38.75
2023-05-25T00:07:38.271Z,39.13
2023-05-25T00:09:44.570Z,39.19
2023-05-25T00:11:49.383Z,38.84
2023-05-25T00:13:56.807Z,39.37
2023-05-25T00:16:01.755Z,39.11
2023-05-25T00:18:06.866Z,39.12
2023-05-25T00:20:14.054Z,39.23
2023-05-25T00:22:18.838Z,39.26
2023-05-25T00:24:23.595Z,39.07
2023-05-25T00:26:28.585Z,39.34
2023-05-25T00:28:33.658Z,39.38
2023-05-25T00:30:41.508Z,39.58
2023-05-25T00:32:46.519Z,39.26
2023-05-25T00:34:52.502Z,39.60
2023-05-25T00:36:57.556Z,39.66
2023-05-25T00:39:02.376Z,39.35
2023-05-25T00:41:08.068Z,39.23
2023-05-25T00:43:13.380Z,39.61
2023-05-25T00:45:18.913Z,39.87
2023-05-25T00:47:27.641Z,39.74
2023-05-25T00:49:34.587Z,40.03
2023-05-25T00:51:39.455Z,39.73
2023-05-25T00:53:44.863Z,39.64
2023-05-25T00:55:56.137Z,39.86
2023-05-25T00:58:06.445Z,40.17
2023-05-25T01:00:13.938Z,40.13
2023-05-25T01:02:21.108Z,40.07
2023-05-25T01:04:31.116Z,40.50
2023-05-25T01:06:38.314Z,40.23
2023-05-25T01:08:47.221Z,39.98
2023-05-25T01:10:55.868Z,40.38
2023-05-25T01:13:02.294Z,40.30
2023-05-25T01:15:09.325Z,40.33
2023-05-25T01:17:14.784Z,40.40
2023-05-25T01:19:19.728Z,40.46
2023-05-25T01:21:32.181Z,40.70
2023-05-25T01:23:39.975Z,40.38
2023-05-25T01:25:49.841Z,41.03
2023-05-25T01:28:00.723Z,41.02
2023-05-25T01:30:09.210Z,40.82
2023-05-25T01:32:16.620Z,41.55
2023-05-25T01:34:23.265Z,41.27
2023-05-25T01:36:31.061Z,41.44
2023-05-25T01:38:36.383Z,41.40
2023-05-25T01:40:41.863Z,41.66
2023-05-25T01:42:47.002Z,41.85
2023-05-25T01:44:52.516Z,42.30
2023-05-25T01:47:06.144Z,42.69
2023-05-25T01:49:19.335Z,42.75
2023-05-25T01:51:28.939Z,42.13
2023-05-25T01:53:40.782Z,43.41
2023-05-25T01:55:51.014Z,43.63
2023-05-25T01:58:00.167Z,43.43
2023-05-25T02:00:06.937Z,43.42
2023-05-25T02:02:20.609Z,43.53
2023-05-25T02:04:26.443Z,43.76
2023-05-25T02:06:32.724Z,43.87
2023-05-25T02:08:47.068Z,44.29
2023-05-25T02:10:51.885Z,44.17
2023-05-25T02:12:56.763Z,44.21
2023-05-25T02:15:01.566Z,44.17
2023-05-25T02:17:07.658Z,44.63
2023-05-25T02:19:12.777Z,44.33
2023-05-25T02:21:17.778Z,44.37
2023-05-25T02:23:22.602Z,44.81
2023-05-25T02:25:30.054Z,45.25
2023-05-25T02:27:35.083Z,44.80
2023-05-25T02:29:40.120Z,45.17
2023-05-25T02:31:45.172Z,45.20
2023-05-25T02:33:50.112Z,45.36
2023-05-25T02:35:57.433Z,45.00
2023-05-25T02:38:02.514Z,45.03
2023-05-25T02:40:09.625Z,45.34
2023-05-25T02:42:17.180Z,45.64
2023-05-25T02:44:21.961Z,45.47
2023-05-25T02:46:26.936Z,45.33
2023-05-25T02:48:31.793Z,45.68
2023-05-25T02:50:37.275Z,45.96
2023-05-25T02:52:45.567Z,45.78
2023-05-25T02:54:50.343Z,45.86
2023-05-25T02:57:03.516Z,45.95
2023-05-25T02:59:12.499Z,46.42
2023-05-25T03:01:19.350Z,45.86
2023-05-25T03:03:30.257Z,46.21
2023-05-25T03:05:36.112Z,46.33
2023-05-25T03:07:41.280Z,46.13
2023-05-25T03:09:46.127Z,46.05
2023-05-25T03:11:51.190Z,46.61
2023-05-25T03:13:58.779Z,46.45
2023-05-25T03:16:09.205Z,46.45
2023-05-25T03:18:11.467Z,46.38
2023-05-25T03:20:16.953Z,45.99
2023-05-25T03:22:25.046Z,45.89
2023-05-25T03:24:29.963Z,46.59
2023-05-25T03:26:38.270Z,46.15
2023-05-25T03:28:44.165Z,46.49
2023-05-25T03:30:50.600Z,46.49
2023-05-25T03:32:58.543Z,46.86
2023-05-25T03:35:09.934Z,46.14
2023-05-25T03:37:16.315Z,46.67
2023-05-25T03:39:22.383Z,46.60
2023-05-25T03:41:29.292Z,46.58
2023-05-25T03:43:36.226Z,46.19
2023-05-25T03:45:43.253Z,46.18
2023-05-25T03:47:48.409Z,46.47
2023-05-25T03:49:55.960Z,46.34
2023-05-25T03:52:01.757Z,46.42
2023-05-25T03:54:07.746Z,46.26
2023-05-25T03:56:12.767Z,46.47
2023-05-25T03:58:18.662Z,46.52
2023-05-25T04:00:24.356Z,46.50
2023-05-25T04:02:29.635Z,46.31
2023-05-25T04:04:34.791Z,46.36
2023-05-25T04:06:42.973Z,46.13
2023-05-25T04:08:48.202Z,46.06
2023-05-25T04:10:53.287Z,45.90
2023-05-25T04:13:00.119Z,45.90
2023-05-25T04:15:09.374Z,46.33
2023-05-25T04:17:25.640Z,46.48
2023-05-25T04:19:31.258Z,46.10
2023-05-25T04:21:36.456Z,46.10
2023-05-25T04:23:44.356Z,46.40
2023-05-25T04:25:51.403Z,46.18
2023-05-25T04:27:56.993Z,46.33
2023-05-25T04:30:25.199Z,45.87
2023-05-25T04:33:03.225Z,46.24
2023-05-25T04:35:31.861Z,45.93
2023-05-25T04:37:37.339Z,46.06
2023-05-25T04:39:46.130Z,46.20
2023-05-25T04:41:51.904Z,46.22
2023-05-25T04:44:05.960Z,45.74
2023-05-25T04:46:14.027Z,45.72
2023-05-25T04:48:20.070Z,45.91
2023-05-25T04:50:26.436Z,45.92
2023-05-25T04:52:31.371Z,45.78
2023-05-25T04:54:36.150Z,45.61
2023-05-25T04:56:43.708Z,45.82
2023-05-25T04:58:48.528Z,45.62
2023-05-25T05:00:53.623Z,45.50
2023-05-25T05:02:58.963Z,45.44
2023-05-25T05:05:04.113Z,45.52
2023-05-25T05:07:09.397Z,45.00
2023-05-25T05:09:14.726Z,44.92
2023-05-25T05:11:19.882Z,45.37
2023-05-25T05:13:27.492Z,44.95
2023-05-25T05:15:33.314Z,45.15
2023-05-25T05:17:38.726Z,45.16
2023-05-25T05:19:43.979Z,45.24
2023-05-25T05:21:49.664Z,45.11
2023-05-25T05:23:56.383Z,45.00
2023-05-25T05:26:01.623Z,44.83
2023-05-25T05:28:06.589Z,44.47
2023-05-25T05:30:19.738Z,44.84
2023-05-25T05:32:24.934Z,44.81
2023-05-25T05:34:30.792Z,44.60
2023-05-25T05:36:48.685Z,44.68
2023-05-25T05:38:58.174Z,44.53
2023-05-25T05:41:03.325Z,44.20
2023-05-25T05:43:08.192Z,44.19
2023-05-25T05:45:13.912Z,44.41
2023-05-25T05:47:21.520Z,43.81
2023-05-25T05:49:26.381Z,44.00
2023-05-25T05:51:31.281Z,44.37
2023-05-25T05:53:36.274Z,43.96
2023-05-25T05:55:41.458Z,44.24
2023-05-25T05:57:46.826Z,44.22
2023-05-25T05:59:51.667Z,44.46
2023-05-25T06:01:57.614Z,44.46
2023-05-25T06:04:05.888Z,44.54
2023-05-25T06:06:10.803Z,44.49
2023-05-25T06:08:18.501Z,44.41
2023-05-25T06:10:23.791Z,44.32
2023-05-25T06:12:29.962Z,44.66
2023-05-25T06:14:35.161Z,44.31
2023-05-25T06:16:43.972Z,44.58
2023-05-25T06:18:49.077Z,44.56
2023-05-25T06:20:57.154Z,44.79
2023-05-25T06:23:02.075Z,44.73
2023-05-25T06:25:10.571Z,44.88
2023-05-25T06:27:17.716Z,44.99
2023-05-25T06:29:22.720Z,44.22
2023-05-25T06:31:27.890Z,44.45
2023-05-25T06:33:32.802Z,44.55
2023-05-25T06:35:37.670Z,44.70
2023-05-25T06:37:45.661Z,45.04
2023-05-25T06:39:50.549Z,44.85
2023-05-25T06:41:56.004Z,45.11
2023-05-25T06:44:06.991Z,45.04
2023-05-25T06:46:19.291Z,44.85
2023-05-25T06:48:24.150Z,45.27
2023-05-25T06:50:30.282Z,45.48
2023-05-25T06:52:35.189Z,45.30
2023-05-25T06:54:43.543Z,45.55
2023-05-25T06:56:48.557Z,45.52
2023-05-25T06:58:53.925Z,45.73
2023-05-25T07:01:00.649Z,45.43
2023-05-25T07:03:05.977Z,45.48
2023-05-25T07:05:11.492Z,45.50
2023-05-25T07:07:16.509Z,45.43
2023-05-25T07:09:21.662Z,45.81
2023-05-25T07:11:29.056Z,45.80
2023-05-25T07:13:33.927Z,45.75
2023-05-25T07:15:38.680Z,45.76
2023-05-25T07:17:43.432Z,45.90
2023-05-25T07:19:48.965Z,45.68
2023-05-25T07:21:53.664Z,45.57
2023-05-25T07:23:58.549Z,45.70
2023-05-25T07:26:05.698Z,45.64
2023-05-25T07:28:13.534Z,45.71
2023-05-25T07:30:18.438Z,45.67
2023-05-25T07:32:23.208Z,45.68
2023-05-25T07:34:28.195Z,45.98
2023-05-25T07:36:33.012Z,45.65
2023-05-25T07:38:37.779Z,45.88
2023-05-25T07:40:42.535Z,45.78
2023-05-25T07:42:47.414Z,45.80
2023-05-25T07:44:55.755Z,46.19
2023-05-25T07:47:00.654Z,46.07
2023-05-25T07:49:06.538Z,45.85
2023-05-25T07:51:11.495Z,46.23
2023-05-25T07:53:16.636Z,46.38
2023-05-25T07:55:21.991Z,46.35
2023-05-25T07:57:27.073Z,46.42
2023-05-25T07:59:31.794Z,46.60
2023-05-25T08:01:39.261Z,46.84
2023-05-25T08:03:49.538Z,46.57
2023-05-25T08:05:54.913Z,46.37
2023-05-25T08:07:59.958Z,46.46
2023-05-25T08:10:05.778Z,46.40
2023-05-25T08:12:27.116Z,46.58
2023-05-25T08:14:35.375Z,46.68
2023-05-25T08:16:42.806Z,46.62
2023-05-25T08:18:47.985Z,46.78
2023-05-25T08:20:52.725Z,46.54
2023-05-25T08:22:57.472Z,46.65
2023-05-25T08:25:02.169Z,46.69
2023-05-25T08:27:07.595Z,46.45
2023-05-25T08:29:12.449Z,46.59
2023-05-25T08:31:17.195Z,46.45
2023-05-25T08:33:25.998Z,46.82
2023-05-25T08:35:31.116Z,46.54
2023-05-25T08:37:35.850Z,46.72
2023-05-25T08:39:40.941Z,46.61
2023-05-25T08:41:47.064Z,46.55
2023-05-25T08:43:52.361Z,46.64
2023-05-25T08:45:58.832Z,46.55
2023-05-25T08:48:07.286Z,46.36
2023-05-25T08:50:15.926Z,46.36
2023-05-25T08:52:25.114Z,46.67
2023-05-25T08:54:34.708Z,46.45
2023-05-25T08:56:46.191Z,46.53
2023-05-25T08:58:56.615Z,46.95
2023-05-25T09:01:07.716Z,46.79
2023-05-25T09:03:18.420Z,46.81
2023-05-25T09:05:27.113Z,46.84
2023-05-25T09:07:33.347Z,46.66
2023-05-25T09:09:39.085Z,46.54
2023-05-25T09:11:46.134Z,46.79
2023-05-25T09:13:51.415Z,46.55
2023-05-25T09:15:56.469Z,46.36
2023-05-25T09:18:01.527Z,46.84
2023-05-25T09:20:07.165Z,46.83
2023-05-25T09:22:17.011Z,47.12
2023-05-25T09:24:22.748Z,46.69
2023-05-25T09:26:27.760Z,46.67
2023-05-25T09:28:32.512Z,46.85
2023-05-25T09:30:37.434Z,47.21
2023-05-25T09:32:42.665Z,46.91
2023-05-25T09:34:48.162Z,46.76
2023-05-25T09:36:53.003Z,46.92
2023-05-25T09:39:00.996Z,46.81
2023-05-25T09:41:07.474Z,46.65
2023-05-25T09:43:14.204Z,46.71
2023-05-25T09:45:22.516Z,46.81
2023-05-25T09:47:27.488Z,46.52
2023-05-25T09:49:32.704Z,46.72
2023-05-25T09:51:38.372Z,46.74
2023-05-25T09:53:43.788Z,46.74
2023-05-25T09:55:54.117Z,47.00
2023-05-25T09:58:00.000Z,46.84
2023-05-25T10:00:05.740Z,46.81
2023-05-25T10:02:17.723Z,46.67
2023-05-25T10:04:23.003Z,46.34
2023-05-25T10:06:28.511Z,46.59
2023-05-25T10:08:34.402Z,46.30
2023-05-25T10:10:40.505Z,46.38
2023-05-25T10:12:50.137Z,45.94
2023-05-25T10:14:56.232Z,46.10
2023-05-25T10:17:02.665Z,45.85
2023-05-25T10:19:13.046Z,45.82
2023-05-25T10:21:19.432Z,45.53
2023-05-25T10:23:26.218Z,45.56
2023-05-25T10:25:36.540Z,45.42
2023-05-25T10:27:43.613Z,45.65
2023-05-25T10:29:52.629Z,45.56
2023-05-25T10:31:58.259Z,45.56
2023-05-25T10:34:05.021Z,45.74
2023-05-25T10:36:13.725Z,45.58
2023-05-25T10:38:19.875Z,45.59
2023-05-25T10:40:25.424Z,45.62
2023-05-25T10:42:30.468Z,45.49
2023-05-25T10:44:35.521Z,45.81
2023-05-25T10:46:43.637Z,46.15
2023-05-25T10:48:49.824Z,45.62
2023-05-25T10:50:54.761Z,45.46
2023-05-25T10:53:04.193Z,45.79
2023-05-25T10:55:10.587Z,45.62
2023-05-25T10:57:20.769Z,45.32
2023-05-25T10:59:29.264Z,44.84
2023-05-25T11:01:36.689Z,45.10
2023-05-25T11:04:18.750Z,44.77
2023-05-25T11:06:25.449Z,44.95
2023-05-25T11:08:53.738Z,43.97
2023-05-25T11:11:01.843Z,44.27
2023-05-25T11:13:37.041Z,43.62
2023-05-25T11:15:43.147Z,44.14
2023-05-25T11:18:02.982Z,43.85
2023-05-25T11:20:11.208Z,43.84
2023-05-25T11:22:18.002Z,44.07
2023-05-25T11:24:23.451Z,44.21
2023-05-25T11:26:29.905Z,43.92
2023-05-25T11:28:35.483Z,43.59
2023-05-25T11:30:42.792Z,43.05
2023-05-25T11:32:52.515Z,42.96
2023-05-25T11:34:59.638Z,43.15
2023-05-25T11:37:11.686Z,43.04
2023-05-25T11:39:22.913Z,43.55
2023-05-25T11:41:28.314Z,43.45
2023-05-25T11:43:37.711Z,43.05
2023-05-25T11:45:42.773Z,43.60
2023-05-25T11:47:47.599Z,43.28
2023-05-25T11:49:52.453Z,43.06
2023-05-25T11:51:59.082Z,42.92
2023-05-25T11:54:06.590Z,42.43
2023-05-25T11:56:12.569Z,42.88
2023-05-25T11:58:18.976Z,42.62
2023-05-25T12:00:31.700Z,42.17
2023-05-25T12:02:41.646Z,42.11
2023-05-25T12:04:57.220Z,41.89
2023-05-25T12:07:05.742Z,41.60
2023-05-25T12:09:16.441Z,41.42
2023-05-25T12:11:21.959Z,41.89
2023-05-25T12:13:26.782Z,41.78
2023-05-25T12:15:31.807Z,41.76
2023-05-25T12:17:37.172Z,42.02
2023-05-25T12:19:42.227Z,42.07
2023-05-25T12:21:48.014Z,42.02
2023-05-25T12:23:53.177Z,42.42
2023-05-25T12:26:12.714Z,42.04
2023-05-25T12:28:18.935Z,42.13
2023-05-25T12:30:31.447Z,42.39
2023-05-25T12:32:36.780Z,42.63
2023-05-25T12:34:41.529Z,42.74
2023-05-25T12:36:50.079Z,42.35
2023-05-25T12:39:01.869Z,41.95
2023-05-25T12:41:12.294Z,42.56
2023-05-25T12:43:17.906Z,42.75
2023-05-25T12:45:22.765Z,42.19
2023-05-25T12:47:28.924Z,42.49
2023-05-25T12:49:35.776Z,42.42
2023-05-25T12:51:41.997Z,41.97
2023-05-25T12:53:51.137Z,41.72
2023-05-25T12:56:04.440Z,41.79
2023-05-25T12:58:29.588Z,41.43
2023-05-25T13:00:35.837Z,42.31
2023-05-25T13:02:40.542Z,42.28
2023-05-25T13:04:45.503Z,42.18
2023-05-25T13:06:50.463Z,41.88
2023-05-25T13:08:55.173Z,41.86
2023-05-25T13:11:00.333Z,42.22
2023-05-25T13:13:05.091Z,41.98
2023-05-25T13:15:13.696Z,42.59
2023-05-25T13:17:18.395Z,42.35
2023-05-25T13:19:26.448Z,42.52
2023-05-25T13:21:31.469Z,42.32
2023-05-25T13:23:36.229Z,42.39
2023-05-25T13:25:40.964Z,42.09
2023-05-25T13:27:48.127Z,41.75
2023-05-25T13:29:52.952Z,41.71
2023-05-25T13:32:00.853Z,41.59
2023-05-25T13:34:06.457Z,41.66
2023-05-25T13:36:11.694Z,41.55
2023-05-25T13:38:17.423Z,41.02
2023-05-25T13:40:22.421Z,41.64
2023-05-25T13:42:27.523Z,41.57
2023-05-25T13:44:34.145Z,41.88
2023-05-25T13:46:39.143Z,41.74
2023-05-25T13:48:47.955Z,42.08
2023-05-25T13:50:52.627Z,41.92
2023-05-25T13:52:57.379Z,42.13
2023-05-25T13:55:02.115Z,42.02
2023-05-25T13:57:07.560Z,42.03
2023-05-25T13:59:12.668Z,42.38
2023-05-25T14:01:17.418Z,42.52
2023-05-25T14:03:22.702Z,42.62
2023-05-25T14:05:31.714Z,42.47
2023-05-25T14:07:36.787Z,42.38
2023-05-25T14:09:42.028Z,42.03
2023-05-25T14:11:46.754Z,42.09
2023-05-25T14:13:51.710Z,42.04
2023-05-25T14:15:56.638Z,42.15
2023-05-25T14:18:01.696Z,42.32
2023-05-25T14:20:07.238Z,41.68
2023-05-25T14:22:14.840Z,41.81
2023-05-25T14:24:19.623Z,42.17
2023-05-25T14:26:24.869Z,41.98
2023-05-25T14:28:29.596Z,42.17
2023-05-25T14:30:34.474Z,41.53
2023-05-25T14:32:39.660Z,41.44
2023-05-25T14:34:44.567Z,41.80
2023-05-25T14:36:49.307Z,41.88
2023-05-25T14:38:56.616Z,41.67
2023-05-25T14:41:01.575Z,41.27
2023-05-25T14:43:06.575Z,41.10
2023-05-25T14:45:13.437Z,41.62
2023-05-25T14:47:19.496Z,41.71
2023-05-25T14:49:25.222Z,41.62
2023-05-25T14:51:30.249Z,41.79
2023-05-25T14:53:35.021Z,41.69
2023-05-25T14:55:44.416Z,41.19
2023-05-25T14:57:49.345Z,41.55
2023-05-25T14:59:54.825Z,41.35
2023-05-25T15:01:59.666Z,41.44
2023-05-25T15:04:04.580Z,41.09
2023-05-25T15:06:10.387Z,40.78
2023-05-25T15:08:15.139Z,40.97
2023-05-25T15:10:20.283Z,41.06
2023-05-25T15:12:27.687Z,40.44
2023-05-25T15:14:32.465Z,40.73
2023-05-25T15:16:37.497Z,40.92
2023-05-25T15:18:42.670Z,40.60
2023-05-25T15:20:47.539Z,40.54
2023-05-25T15:22:54.054Z,40.83
2023-05-25T15:25:00.926Z,40.87
2023-05-25T15:27:07.921Z,40.49
2023-05-25T15:29:16.540Z,40.87
2023-05-25T15:31:21.286Z,40.67
2023-05-25T15:33:32.670Z,40.51
2023-05-25T15:35:48.864Z,40.33
2023-05-25T15:37:53.739Z,40.21
2023-05-25T15:39:58.542Z,40.21
2023-05-25T15:42:03.391Z,40.61
2023-05-25T15:44:08.625Z,40.32
2023-05-25T15:46:16.004Z,40.09
2023-05-25T15:48:21.120Z,40.41
2023-05-25T15:50:26.080Z,40.11
2023-05-25T15:52:30.788Z,39.99
2023-05-25T15:54:35.756Z,39.86
2023-05-25T15:56:41.201Z,40.02
2023-05-25T15:58:49.099Z,39.78
2023-05-25T16:00:53.951Z,39.90
2023-05-25T16:03:01.553Z,39.40
2023-05-25T16:05:07.350Z,39.88
2023-05-25T16:07:12.477Z,39.83
2023-05-25T16:09:17.265Z,39.57
2023-05-25T16:11:22.437Z,39.84
2023-05-25T16:13:27.407Z,39.94
2023-05-25T16:15:32.156Z,39.96
2023-05-25T16:17:36.923Z,39.54
2023-05-25T16:19:44.303Z,39.45
2023-05-25T16:21:49.040Z,39.47
2023-05-25T16:23:54.164Z,39.28
2023-05-25T16:25:58.916Z,39.21
2023-05-25T16:28:04.069Z,39.21
2023-05-25T16:30:12.550Z,39.09
2023-05-25T16:32:18.205Z,39.22
2023-05-25T16:34:22.963Z,39.32
2023-05-25T16:36:30.566Z,39.07
2023-05-25T16:38:35.342Z,39.30
2023-05-25T16:40:40.129Z,39.05
2023-05-25T16:42:44.985Z,39.03
2023-05-25T16:44:49.737Z,39.17
2023-05-25T16:46:54.424Z,39.27
2023-05-25T16:48:59.284Z,39.11
2023-05-25T16:51:04.110Z,39.01
2023-05-25T16:53:11.624Z,38.73
2023-05-25T16:55:16.544Z,38.73
2023-05-25T16:57:21.369Z,38.72
2023-05-25T16:59:26.123Z,38.54
2023-05-25T17:01:31.094Z,39.09
2023-05-25T17:03:36.710Z,38.98
2023-05-25T17:05:41.508Z,38.57
2023-05-25T17:07:46.328Z,38.74
2023-05-25T17:09:53.831Z,38.56
2023-05-25T17:12:01.266Z,38.44
2023-05-25T17:14:06.125Z,38.61
2023-05-25T17:16:10.949Z,38.36
2023-05-25T17:18:16.042Z,38.62
2023-05-25T17:20:20.924Z,38.21
2023-05-25T17:22:25.760Z,38.33
2023-05-25T17:24:30.812Z,38.25
2023-05-25T17:26:38.326Z,38.26
2023-05-25T17:28:43.024Z,38.31
2023-05-25T17:30:48.618Z,38.08
2023-05-25T17:32:54.160Z,38.38
2023-05-25T17:34:59.199Z,38.44
2023-05-25T17:37:04.063Z,38.19
2023-05-25T17:39:08.915Z,38.48
2023-05-25T17:41:14.523Z,38.28
2023-05-25T17:43:22.358Z,38.22
2023-05-25T17:45:27.157Z,38.72
2023-05-25T17:47:32.114Z,38.67
2023-05-25T17:49:37.033Z,38.56
2023-05-25T17:51:41.965Z,38.95
2023-05-25T17:53:46.912Z,38.59
2023-05-25T17:55:51.847Z,38.55
2023-05-25T17:57:56.655Z,39.06
2023-05-25T18:00:04.392Z,38.68
2023-05-25T18:02:17.283Z,38.80
2023-05-25T18:04:22.555Z,38.88
2023-05-25T18:06:29.204Z,38.58
2023-05-25T18:08:34.371Z,38.73
2023-05-25T18:10:39.154Z,38.59
2023-05-25T18:12:46.355Z,38.77
2023-05-25T18:14:51.084Z,38.70
2023-05-25T18:16:58.627Z,38.98
2023-05-25T18:19:03.938Z,39.05
2023-05-25T18:21:08.925Z,39.10
2023-05-25T18:23:13.790Z,39.06
2023-05-25T18:25:18.571Z,38.87
2023-05-25T18:27:23.385Z,38.80
2023-05-25T18:29:28.257Z,39.07
2023-05-25T18:31:34.303Z,38.96
2023-05-25T18:33:41.855Z,39.27
2023-05-25T18:35:46.856Z,38.98
2023-05-25T18:37:51.697Z,38.95
2023-05-25T18:39:56.392Z,39.35
2023-05-25T18:42:01.864Z,38.97
2023-05-25T18:44:06.697Z,39.13
2023-05-25T18:46:11.532Z,39.23
2023-05-25T18:48:18.957Z,39.52
2023-05-25T18:50:27.259Z,39.68
2023-05-25T18:52:31.926Z,39.29
2023-05-25T18:54:36.681Z,39.48
2023-05-25T18:56:41.524Z,39.25
2023-05-25T18:58:47.090Z,39.35
2023-05-25T19:00:52.558Z,39.67
2023-05-25T19:02:57.615Z,39.82
2023-05-25T19:05:02.441Z,39.52
2023-05-25T19:07:09.938Z,39.98
2023-05-25T19:09:15.130Z,39.89
2023-05-25T19:11:20.276Z,39.90
2023-05-25T19:13:25.218Z,40.31
2023-05-25T19:15:30.019Z,40.16
2023-05-25T19:17:34.746Z,39.95
2023-05-25T19:19:39.616Z,40.01
2023-05-25T19:21:44.979Z,40.23
2023-05-25T19:23:52.658Z,40.66
2023-05-25T19:25:57.467Z,40.62
2023-05-25T19:28:02.595Z,40.75
2023-05-25T19:30:08.488Z,40.59
2023-05-25T19:32:14.993Z,40.83
2023-05-25T19:34:20.839Z,40.54
2023-05-25T19:36:25.953Z,40.49
2023-05-25T19:38:37.704Z,40.97
2023-05-25T19:40:48.908Z,40.72
2023-05-25T19:42:53.703Z,40.55
2023-05-25T19:44:59.998Z,40.61
2023-05-25T19:47:04.772Z,41.06
2023-05-25T19:49:09.925Z,41.01
2023-05-25T19:51:14.685Z,40.90
2023-05-25T19:53:19.527Z,40.76
2023-05-25T19:55:24.387Z,40.89
2023-05-25T19:57:32.431Z,41.15
2023-05-25T19:59:38.198Z,40.82
2023-05-25T20:01:43.041Z,41.09
2023-05-25T20:03:47.873Z,41.26
2023-05-25T20:05:52.803Z,40.99
2023-05-25T20:07:57.554Z,41.23
2023-05-25T20:10:02.378Z,41.13
2023-05-25T20:12:08.558Z,41.40
2023-05-25T20:14:17.454Z,41.71
2023-05-25T20:16:25.098Z,41.57
2023-05-25T20:18:29.952Z,41.51
2023-05-25T20:20:34.776Z,41.54
2023-05-25T20:22:39.780Z,41.24
2023-05-25T20:24:44.673Z,41.60
2023-05-25T20:26:49.537Z,41.68
2023-05-25T20:28:54.579Z,41.43
2023-05-25T20:31:02.107Z,41.82
2023-05-25T20:33:07.550Z,41.73
2023-05-25T20:35:12.934Z,41.60
2023-05-25T20:37:17.775Z,41.92
2023-05-25T20:39:22.739Z,41.54
2023-05-25T20:41:27.693Z,41.79
2023-05-25T20:43:32.716Z,41.75
2023-05-25T20:45:38.753Z,41.90
2023-05-25T20:47:46.201Z,41.81
2023-05-25T20:49:51.381Z,41.80
2023-05-25T20:51:56.470Z,41.88
2023-05-25T20:54:01.377Z,41.56
2023-05-25T20:56:06.355Z,41.83
2023-05-25T20:58:11.208Z,41.55
2023-05-25T21:00:18.041Z,41.85
2023-05-25T21:02:23.045Z,41.76
2023-05-25T21:04:31.971Z,42.19
2023-05-25T21:06:37.189Z,41.70
2023-05-25T21:08:42.058Z,41.93
2023-05-25T21:10:46.896Z,42.00
2023-05-25T21:12:51.983Z,41.79
2023-05-25T21:14:57.129Z,42.02
2023-05-25T21:17:02.343Z,42.00
2023-05-25T21:19:07.655Z,42.09
2023-05-25T21:21:16.114Z,42.40
2023-05-25T21:23:21.094Z,42.15
2023-05-25T21:25:25.932Z,41.93
2023-05-25T21:27:31.185Z,42.22
2023-05-25T21:29:36.368Z,42.23
2023-05-25T21:31:41.231Z,42.16
2023-05-25T21:33:47.470Z,42.48
2023-05-25T21:35:52.279Z,42.17
2023-05-25T21:38:00.020Z,42.51
2023-05-25T21:40:04.973Z,42.14
2023-05-25T21:42:09.889Z,42.28
2023-05-25T21:44:14.875Z,42.32
2023-05-25T21:46:20.098Z,42.43
2023-05-25T21:48:24.906Z,42.44
2023-05-25T21:50:29.752Z,42.25
2023-05-25T21:52:34.566Z,42.32
2023-05-25T21:54:42.044Z,41.92
2023-05-25T21:56:46.826Z,42.12
2023-05-25T21:58:51.684Z,42.13
2023-05-25T22:00:56.756Z,42.02
2023-05-25T22:03:01.950Z,42.33
2023-05-25T22:05:07.524Z,42.06
2023-05-25T22:07:12.401Z,42.29
2023-05-25T22:09:17.300Z,42.42
2023-05-25T22:11:25.460Z,42.35
2023-05-25T22:13:30.241Z,42.25
2023-05-25T22:15:35.470Z,42.55
2023-05-25T22:17:40.388Z,42.26
2023-05-25T22:19:52.105Z,42.72
2023-05-25T22:22:04.029Z,42.37
2023-05-25T22:24:09.514Z,42.35
2023-05-25T22:26:14.357Z,42.65
2023-05-25T22:28:21.851Z,42.71
2023-05-25T22:30:26.980Z,42.56
2023-05-25T22:32:32.507Z,42.56
2023-05-25T22:34:37.689Z,42.31
2023-05-25T22:36:42.863Z,42.70
2023-05-25T22:38:47.777Z,42.76
2023-05-25T22:40:52.677Z,42.71
2023-05-25T22:42:57.461Z,42.73
2023-05-25T22:45:05.184Z,42.81
2023-05-25T22:47:10.172Z,42.32
2023-05-25T22:49:14.989Z,42.58
2023-05-25T22:51:19.937Z,42.86
2023-05-25T22:53:24.930Z,42.75
2023-05-25T22:55:29.870Z,42.79
2023-05-25T22:57:34.961Z,42.71
2023-05-25T22:59:39.960Z,42.65
2023-05-25T23:01:47.465Z,42.80
2023-05-25T23:03:52.660Z,42.82
2023-05-25T23:05:57.662Z,42.73
2023-05-25T23:08:02.472Z,42.92
2023-05-25T23:10:08.408Z,42.74
2023-05-25T23:12:13.215Z,42.72
2023-05-25T23:14:18.119Z,42.90
2023-05-25T23:16:23.833Z,42.65
2023-05-25T23:18:31.437Z,43.02
2023-05-25T23:20:36.880Z,43.07
2023-05-25T23:22:42.012Z,42.95
2023-05-25T23:24:46.839Z,42.74
2023-05-25T23:26:52.381Z,42.99
2023-05-25T23:28:59.771Z,42.73
2023-05-25T23:31:04.774Z,43.16
2023-05-25T23:33:10.557Z,43.18
2023-05-25T23:35:18.505Z,43.50
2023-05-25T23:37:23.563Z,43.97
2023-05-25T23:39:28.551Z,43.77
2023-05-25T23:41:33.266Z,43.67
2023-05-25T23:43:38.154Z,43.70
2023-05-25T23:45:43.579Z,43.79
2023-05-25T23:47:48.600Z,44.17
2023-05-25T23:49:53.488Z,43.92
2023-05-25T23:52:01.614Z,44.36
2023-05-25T23:54:07.064Z,44.43
2023-05-25T23:56:11.863Z,44.21
2023-05-25T23:58:16.880Z,44.08
